Texas General Land Office
 Texas General Land Office
 George P. Bush, Commissioner

 Oil Spill Prevention
 & Response

Texas Automated Buoy System
Real Time Ocean Observations
Supporting Oil Spill Prevention and
Response since 1995
Geochemical and Environmental Research Group

TABS Buoy V -- Texas Automated Buoy System

TABS Buoy V Conditions at 06/22/2018 19:30 UTC (06/22/2018 14:30 CDT)
27° 53.7960'N   93° 35.8380'W
AA3900 DCS - sensor depth 2m
Anemometer height: 4m
Water Depth: 295 feet (89 meters)
Speed: 37.14 cm/s (0.72 kts) Direction: 85 °T (E) Water Temp: 28°C (83 °F)
System Voltage: 13.6 V Signal Strength: -3.0 dB Ping Count: 163
Wind: 4.6 m/s (9.0 kts)
          From 205°T (SSW)
Air Temp: 28 °C (82 °F)
Relative Humidity:  74 %
Pressure: 1014.0 mb (29.94 inHg)
Waves: 1.0 m (3.3 ft) @ 6 sec
  


IMPORTANT: Notice to Mariners


Today's Velocity Data (download)

   Date   |  Time  |   East |   North|   Speed|  Dir | WaterT |
          |  (UTC) |  (cm/s)|  (cm/s)|  (cm/s)| (°T) |  (°C)  |
==========+========+========+========+========+======+========+
06/22/2018 00:00:00    27.44    -2.57    27.56   95.4   28.5
06/22/2018 00:30:00    27.73    -3.42    27.94   97.0   28.5
06/22/2018 01:00:00    23.15    -0.73    23.16   91.8   28.4
06/22/2018 01:30:00    24.43    -1.24    24.46   92.9   28.4
06/22/2018 02:00:00    21.98    -3.39    22.24   98.8   28.3
06/22/2018 02:30:00    17.85    -1.57    17.92   95.0   28.3
06/22/2018 03:00:00    16.65    -2.25    16.80   97.7   28.2
06/22/2018 03:30:00    15.45     0.40    15.46   88.5   28.2
06/22/2018 04:00:00    15.02    -1.50    15.09   95.7   28.2
06/22/2018 04:30:00    18.15    -2.78    18.36   98.7   28.1
06/22/2018 05:00:00    21.27    -3.26    21.52   98.7   28.1
06/22/2018 05:30:00    20.24     2.37    20.38   83.3   28.1
06/22/2018 06:00:00    18.66     5.56    19.47   73.4   28.1
06/22/2018 06:30:00    20.48     3.92    20.85   79.2   28.4
06/22/2018 07:00:00    16.12     4.92    16.85   73.0   28.3
06/22/2018 07:30:00    18.42     8.22    20.17   66.0   28.2
06/22/2018 08:00:00    17.23    10.32    20.08   59.1   28.3
06/22/2018 08:30:00    17.87     6.96    19.18   68.7   28.3
06/22/2018 09:00:00    17.96     8.82    20.01   63.8   28.2
06/22/2018 09:30:00    18.10    11.61    21.50   57.3   28.3
06/22/2018 10:00:00    21.76     9.78    23.86   65.8   28.3
06/22/2018 10:30:00    22.85    14.27    26.94   58.0   28.3
06/22/2018 11:00:00    25.78    12.45    28.63   64.2   28.3
06/22/2018 11:30:00    21.31    11.79    24.35   61.0   28.3
06/22/2018 12:00:00    26.64    10.07    28.48   69.3   28.2
06/22/2018 12:30:00    28.37    12.31    30.93   66.5   28.3
06/22/2018 13:00:00    27.18    10.28    29.06   69.3   28.2
06/22/2018 13:30:00    28.50     8.20    29.66   73.9   28.2
06/22/2018 14:00:00    29.88    10.90    31.81   70.0   28.2
06/22/2018 14:30:00    33.16    10.39    34.75   72.6   28.2
06/22/2018 15:00:00    32.96    13.02    35.44   68.4   28.2
06/22/2018 15:30:00    31.05    10.83    32.88   70.8   28.2
06/22/2018 16:00:00    32.62    14.51    35.70   66.0   28.2
06/22/2018 16:30:00    36.69    10.25    38.09   74.4   28.2
06/22/2018 17:00:00    36.69     7.42    37.43   78.6   28.1
06/22/2018 17:30:00    34.48     5.54    34.92   80.9   28.2
06/22/2018 18:00:00    40.60     3.96    40.79   84.4   28.3
06/22/2018 18:30:00    40.56     0.78    40.57   88.9   28.3
06/22/2018 19:00:00    39.73     0.72    39.74   89.0   28.4
06/22/2018 19:30:00    36.99     3.28    37.14   84.9   28.4



       
 

Today's Wave Data    


   Date   |  Time  |Sig Wave Ht| Peak Period|
          |  (UTC) | (meters)  |    (sec)   |
==========+========+===========+============+
06/22/2018 00:20:58      1.4        7
06/22/2018 01:20:59      1.4        7
06/22/2018 02:20:58      1.4        7
06/22/2018 03:20:58      1.3        7
06/22/2018 04:20:58      1.3        7
06/22/2018 05:20:58      1.2        7
06/22/2018 06:20:59      1.2        7
06/22/2018 07:20:59      1.2        7
06/22/2018 08:20:59      1.1        7
06/22/2018 09:20:58      1.2        7
06/22/2018 10:20:58      1.2        7
06/22/2018 11:20:59      1.1        7
06/22/2018 12:20:59      1.1        7
06/22/2018 13:20:58      1.0        7
06/22/2018 14:20:59      1.0        7
06/22/2018 15:20:59      1.0        7
06/22/2018 16:20:58      0.9        7
06/22/2018 17:20:58      1.0        7
06/22/2018 18:20:59      1.0        6
06/22/2018 19:20:58      1.0        6
       
 

Today's Temperature - Salinity Data     (Download)


   Date   |  Time  |   Temp |   Cond |Salinity| Density|SoundVel|
          |  (UTC) |   (°C) | (ms/cm)|        | kg/m^3 |  (m/s) |
==========+========+========+========+========+========+========+
06/22/2018 00:00:00    28.49    56.55    34.87     0.00     0.00
06/22/2018 00:30:00    28.46    56.48    34.84     0.00     0.00
06/22/2018 01:00:00    28.40    56.39    34.82     0.00     0.00
06/22/2018 01:30:00    28.37    56.33    34.81     0.00     0.00
06/22/2018 02:00:00    28.33    56.29    34.80     0.00     0.00
06/22/2018 02:30:00    28.31    56.26    34.80     0.00     0.00
06/22/2018 03:00:00    28.29    56.23    34.80     0.00     0.00
06/22/2018 03:30:00    28.31    56.24    34.79     0.00     0.00
06/22/2018 04:00:00    28.20    56.09    34.76     0.00     0.00
06/22/2018 04:30:00    28.12    56.00    34.76     0.00     0.00
06/22/2018 05:00:00    28.14    56.02    34.76     0.00     0.00
06/22/2018 05:30:00    28.22    56.11    34.76     0.00     0.00
06/22/2018 06:00:00    28.21    56.15    34.79     0.00     0.00
06/22/2018 06:30:00    28.29    56.31    34.85     0.00     0.00
06/22/2018 07:00:00    28.27    56.40    34.92     0.00     0.00
06/22/2018 07:30:00    28.32    56.54    34.99     0.00     0.00
06/22/2018 08:00:00    28.33    56.63    35.04     0.00     0.00
06/22/2018 08:30:00    28.29    56.59    35.04     0.00     0.00
06/22/2018 09:00:00    28.31    56.64    35.07     0.00     0.00
06/22/2018 09:30:00    28.38    56.79    35.12     0.00     0.00
06/22/2018 10:00:00    28.36    56.81    35.14     0.00     0.00
06/22/2018 10:30:00    28.34    56.77    35.13     0.00     0.00
06/22/2018 11:00:00    28.34    56.80    35.15     0.00     0.00
06/22/2018 11:30:00    28.33    56.80    35.16     0.00     0.00
06/22/2018 12:00:00    28.29    56.78    35.17     0.00     0.00
06/22/2018 12:30:00    28.29    56.78    35.18     0.00     0.00
06/22/2018 13:00:00    28.27    56.77    35.18     0.00     0.00
06/22/2018 13:30:00    28.24    56.73    35.18     0.00     0.00
06/22/2018 14:00:00    28.21    56.69    35.17     0.00     0.00
06/22/2018 14:30:00    28.21    56.68    35.17     0.00     0.00
06/22/2018 15:00:00    28.22    56.70    35.18     0.00     0.00
06/22/2018 15:30:00    28.27    56.83    35.22     0.00     0.00
06/22/2018 16:00:00    28.27    56.83    35.23     0.00     0.00
06/22/2018 16:30:00    28.17    56.62    35.15     0.00     0.00
06/22/2018 17:00:00    28.16    56.57    35.12     0.00     0.00
06/22/2018 17:30:00    28.40    57.02    35.26     0.00     0.00
06/22/2018 18:00:00    28.27    56.67    35.12     0.00     0.00
06/22/2018 18:30:00    28.34    56.67    35.06     0.00     0.00
06/22/2018 19:00:00    28.43    56.75    35.05     0.00     0.00
06/22/2018 19:30:00    28.42    56.77    35.07     0.00     0.00